sensor_id;sensor_type;location;lat;lon;timestamp;P1;durP1;ratioP1;P2;durP2;ratioP2
75704;SDS011;64391;44.686;37.628;2022-10-22T00:00:01;16.83;;;6.20;;
75704;SDS011;64391;44.686;37.628;2022-10-22T00:02:31;16.52;;;6.35;;
75704;SDS011;64391;44.686;37.628;2022-10-22T00:04:58;19.33;;;6.40;;
75704;SDS011;64391;44.686;37.628;2022-10-22T00:07:25;16.75;;;5.75;;
75704;SDS011;64391;44.686;37.628;2022-10-22T00:09:51;12.90;;;5.10;;
75704;SDS011;64391;44.686;37.628;2022-10-22T00:12:18;11.98;;;5.85;;
75704;SDS011;64391;44.686;37.628;2022-10-22T00:14:45;15.93;;;6.97;;
75704;SDS011;64391;44.686;37.628;2022-10-22T00:19:58;14.45;;;5.55;;
75704;SDS011;64391;44.686;37.628;2022-10-22T00:22:25;14.60;;;5.25;;
75704;SDS011;64391;44.686;37.628;2022-10-22T00:24:52;11.32;;;5.22;;
75704;SDS011;64391;44.686;37.628;2022-10-22T00:27:19;11.00;;;4.85;;
75704;SDS011;64391;44.686;37.628;2022-10-22T00:29:46;15.25;;;5.20;;
75704;SDS011;64391;44.686;37.628;2022-10-22T00:32:13;17.08;;;5.65;;
75704;SDS011;64391;44.686;37.628;2022-10-22T00:34:40;16.73;;;6.00;;
75704;SDS011;64391;44.686;37.628;2022-10-22T00:37:07;14.68;;;5.95;;
75704;SDS011;64391;44.686;37.628;2022-10-22T00:42:20;15.55;;;5.22;;
75704;SDS011;64391;44.686;37.628;2022-10-22T00:47:42;11.30;;;5.75;;
75704;SDS011;64391;44.686;37.628;2022-10-22T00:50:18;14.73;;;6.00;;
75704;SDS011;64391;44.686;37.628;2022-10-22T00:52:51;16.70;;;6.47;;
75704;SDS011;64391;44.686;37.628;2022-10-22T00:55:20;21.40;;;7.47;;
75704;SDS011;64391;44.686;37.628;2022-10-22T00:57:49;20.35;;;6.78;;
75704;SDS011;64391;44.686;37.628;2022-10-22T01:00:19;17.98;;;7.00;;
75704;SDS011;64391;44.686;37.628;2022-10-22T01:02:46;19.80;;;7.10;;
75704;SDS011;64391;44.686;37.628;2022-10-22T01:05:16;16.90;;;6.55;;
75704;SDS011;64391;44.686;37.628;2022-10-22T01:07:44;18.23;;;7.75;;
75704;SDS011;64391;44.686;37.628;2022-10-22T01:10:25;19.25;;;7.47;;
75704;SDS011;64391;44.686;37.628;2022-10-22T01:13:20;23.60;;;7.55;;
75704;SDS011;64391;44.686;37.628;2022-10-22T01:16:08;18.52;;;7.28;;
75704;SDS011;64391;44.686;37.628;2022-10-22T01:18:43;21.75;;;8.07;;
75704;SDS011;64391;44.686;37.628;2022-10-22T01:21:34;24.30;;;8.82;;
75704;SDS011;64391;44.686;37.628;2022-10-22T01:32:25;23.50;;;8.88;;
75704;SDS011;64391;44.686;37.628;2022-10-22T01:35:14;23.48;;;8.45;;
75704;SDS011;64391;44.686;37.628;2022-10-22T01:37:47;16.00;;;6.32;;
75704;SDS011;64391;44.686;37.628;2022-10-22T01:40:17;18.13;;;6.20;;
75704;SDS011;64391;44.686;37.628;2022-10-22T01:42:58;14.30;;;5.80;;
75704;SDS011;64391;44.686;37.628;2022-10-22T01:54:20;10.88;;;4.63;;
75704;SDS011;64391;44.686;37.628;2022-10-22T01:56:56;10.43;;;4.25;;
75704;SDS011;64391;44.686;37.628;2022-10-22T02:04:49;12.93;;;4.28;;
75704;SDS011;64391;44.686;37.628;2022-10-22T02:07:46;14.63;;;4.70;;
75704;SDS011;64391;44.686;37.628;2022-10-22T02:10:33;16.88;;;4.63;;
75704;SDS011;64391;44.686;37.628;2022-10-22T02:13:23;14.88;;;5.20;;
75704;SDS011;64391;44.686;37.628;2022-10-22T02:16:17;13.70;;;5.47;;
75704;SDS011;64391;44.686;37.628;2022-10-22T02:21:51;18.05;;;5.20;;
75704;SDS011;64391;44.686;37.628;2022-10-22T02:24:19;13.52;;;5.00;;
75704;SDS011;64391;44.686;37.628;2022-10-22T02:27:08;10.38;;;3.80;;
75704;SDS011;64391;44.686;37.628;2022-10-22T02:29:51;8.40;;;3.33;;
75704;SDS011;64391;44.686;37.628;2022-10-22T02:32:21;7.43;;;3.05;;
75704;SDS011;64391;44.686;37.628;2022-10-22T02:34:52;7.80;;;3.05;;
75704;SDS011;64391;44.686;37.628;2022-10-22T02:37:21;8.40;;;3.13;;
75704;SDS011;64391;44.686;37.628;2022-10-22T02:39:49;9.57;;;3.35;;
75704;SDS011;64391;44.686;37.628;2022-10-22T02:42:17;7.65;;;3.30;;
75704;SDS011;64391;44.686;37.628;2022-10-22T02:44:44;8.52;;;3.17;;
75704;SDS011;64391;44.686;37.628;2022-10-22T02:49:56;8.68;;;3.20;;
75704;SDS011;64391;44.686;37.628;2022-10-22T02:52:23;7.70;;;3.28;;
75704;SDS011;64391;44.686;37.628;2022-10-22T02:54:50;10.05;;;3.35;;
75704;SDS011;64391;44.686;37.628;2022-10-22T02:57:36;9.75;;;3.22;;
75704;SDS011;64391;44.686;37.628;2022-10-22T03:00:04;10.85;;;2.97;;
75704;SDS011;64391;44.686;37.628;2022-10-22T03:02:49;8.93;;;3.42;;
75704;SDS011;64391;44.686;37.628;2022-10-22T03:05:16;7.72;;;2.90;;
75704;SDS011;64391;44.686;37.628;2022-10-22T03:10:46;6.22;;;2.25;;
75704;SDS011;64391;44.686;37.628;2022-10-22T03:13:13;5.13;;;1.98;;
75704;SDS011;64391;44.686;37.628;2022-10-22T03:15:40;7.63;;;2.40;;
75704;SDS011;64391;44.686;37.628;2022-10-22T03:18:25;5.75;;;2.35;;
75704;SDS011;64391;44.686;37.628;2022-10-22T03:23:41;7.80;;;2.00;;
75704;SDS011;64391;44.686;37.628;2022-10-22T03:26:09;7.82;;;2.60;;
75704;SDS011;64391;44.686;37.628;2022-10-22T03:31:25;8.40;;;2.30;;
75704;SDS011;64391;44.686;37.628;2022-10-22T03:33:53;4.85;;;1.80;;
75704;SDS011;64391;44.686;37.628;2022-10-22T03:36:19;5.45;;;1.98;;
75704;SDS011;64391;44.686;37.628;2022-10-22T03:38:46;4.55;;;1.95;;
75704;SDS011;64391;44.686;37.628;2022-10-22T03:41:14;3.58;;;1.48;;
75704;SDS011;64391;44.686;37.628;2022-10-22T03:46:28;2.65;;;1.42;;
75704;SDS011;64391;44.686;37.628;2022-10-22T03:48:55;4.88;;;1.30;;
75704;SDS011;64391;44.686;37.628;2022-10-22T03:51:22;3.17;;;1.35;;
75704;SDS011;64391;44.686;37.628;2022-10-22T03:53:48;3.20;;;1.70;;
75704;SDS011;64391;44.686;37.628;2022-10-22T03:59:01;4.03;;;1.67;;
75704;SDS011;64391;44.686;37.628;2022-10-22T04:01:28;3.38;;;1.73;;
75704;SDS011;64391;44.686;37.628;2022-10-22T04:03:56;5.07;;;1.83;;
75704;SDS011;64391;44.686;37.628;2022-10-22T04:06:41;4.35;;;1.80;;
75704;SDS011;64391;44.686;37.628;2022-10-22T04:09:08;6.60;;;2.00;;
75704;SDS011;64391;44.686;37.628;2022-10-22T04:11:34;5.13;;;2.03;;
75704;SDS011;64391;44.686;37.628;2022-10-22T04:14:01;4.45;;;1.85;;
75704;SDS011;64391;44.686;37.628;2022-10-22T04:21:59;7.80;;;2.92;;
75704;SDS011;64391;44.686;37.628;2022-10-22T04:24:26;5.97;;;2.67;;
75704;SDS011;64391;44.686;37.628;2022-10-22T04:26:53;5.72;;;1.92;;
75704;SDS011;64391;44.686;37.628;2022-10-22T04:29:20;6.72;;;2.08;;
75704;SDS011;64391;44.686;37.628;2022-10-22T04:32:06;5.47;;;2.13;;
75704;SDS011;64391;44.686;37.628;2022-10-22T04:34:51;6.65;;;2.70;;
75704;SDS011;64391;44.686;37.628;2022-10-22T04:37:18;9.05;;;3.35;;
75704;SDS011;64391;44.686;37.628;2022-10-22T04:42:49;22.95;;;4.43;;
75704;SDS011;64391;44.686;37.628;2022-10-22T04:45:36;16.00;;;4.47;;
75704;SDS011;64391;44.686;37.628;2022-10-22T04:48:03;10.35;;;3.10;;
75704;SDS011;64391;44.686;37.628;2022-10-22T04:50:30;5.97;;;2.90;;
75704;SDS011;64391;44.686;37.628;2022-10-22T04:52:57;7.07;;;3.13;;
75704;SDS011;64391;44.686;37.628;2022-10-22T04:55:24;8.18;;;2.60;;
75704;SDS011;64391;44.686;37.628;2022-10-22T04:57:51;5.22;;;3.15;;
75704;SDS011;64391;44.686;37.628;2022-10-22T05:00:18;9.73;;;2.92;;
75704;SDS011;64391;44.686;37.628;2022-10-22T05:02:47;8.32;;;2.83;;
75704;SDS011;64391;44.686;37.628;2022-10-22T05:05:15;10.55;;;3.10;;
75704;SDS011;64391;44.686;37.628;2022-10-22T05:07:42;9.75;;;3.40;;
75704;SDS011;64391;44.686;37.628;2022-10-22T05:10:09;8.02;;;3.20;;
75704;SDS011;64391;44.686;37.628;2022-10-22T05:12:35;9.10;;;3.58;;
75704;SDS011;64391;44.686;37.628;2022-10-22T05:15:02;10.02;;;3.90;;
75704;SDS011;64391;44.686;37.628;2022-10-22T05:17:29;14.18;;;4.43;;
75704;SDS011;64391;44.686;37.628;2022-10-22T05:19:56;12.93;;;5.35;;
75704;SDS011;64391;44.686;37.628;2022-10-22T05:22:23;15.63;;;6.28;;
75704;SDS011;64391;44.686;37.628;2022-10-22T05:24:50;22.80;;;6.70;;
75704;SDS011;64391;44.686;37.628;2022-10-22T05:27:17;19.17;;;7.05;;
75704;SDS011;64391;44.686;37.628;2022-10-22T05:29:43;23.13;;;6.93;;
75704;SDS011;64391;44.686;37.628;2022-10-22T05:32:10;13.93;;;5.55;;
75704;SDS011;64391;44.686;37.628;2022-10-22T05:34:37;19.90;;;5.82;;
75704;SDS011;64391;44.686;37.628;2022-10-22T05:37:04;11.50;;;5.20;;
75704;SDS011;64391;44.686;37.628;2022-10-22T05:39:31;17.02;;;5.53;;
75704;SDS011;64391;44.686;37.628;2022-10-22T05:42:02;18.10;;;5.72;;
75704;SDS011;64391;44.686;37.628;2022-10-22T05:44:29;17.77;;;5.45;;
75704;SDS011;64391;44.686;37.628;2022-10-22T05:46:55;24.30;;;6.00;;
75704;SDS011;64391;44.686;37.628;2022-10-22T05:49:22;15.32;;;5.72;;
75704;SDS011;64391;44.686;37.628;2022-10-22T05:51:49;22.77;;;6.35;;
75704;SDS011;64391;44.686;37.628;2022-10-22T05:54:17;17.35;;;5.30;;
75704;SDS011;64391;44.686;37.628;2022-10-22T05:56:45;12.40;;;5.07;;
75704;SDS011;64391;44.686;37.628;2022-10-22T05:59:13;15.10;;;4.63;;
75704;SDS011;64391;44.686;37.628;2022-10-22T06:01:39;13.27;;;4.63;;
75704;SDS011;64391;44.686;37.628;2022-10-22T06:04:07;16.98;;;4.75;;
75704;SDS011;64391;44.686;37.628;2022-10-22T06:11:46;21.15;;;5.97;;
75704;SDS011;64391;44.686;37.628;2022-10-22T06:14:14;14.95;;;4.95;;
75704;SDS011;64391;44.686;37.628;2022-10-22T06:16:41;15.07;;;5.95;;
75704;SDS011;64391;44.686;37.628;2022-10-22T06:19:09;15.88;;;5.88;;
75704;SDS011;64391;44.686;37.628;2022-10-22T06:21:38;15.13;;;4.72;;
75704;SDS011;64391;44.686;37.628;2022-10-22T06:24:05;17.00;;;5.30;;
75704;SDS011;64391;44.686;37.628;2022-10-22T06:26:32;9.85;;;3.90;;
75704;SDS011;64391;44.686;37.628;2022-10-22T06:28:59;11.80;;;4.10;;
75704;SDS011;64391;44.686;37.628;2022-10-22T06:31:27;9.93;;;3.80;;
75704;SDS011;64391;44.686;37.628;2022-10-22T06:33:55;8.60;;;3.45;;
75704;SDS011;64391;44.686;37.628;2022-10-22T06:36:23;9.05;;;3.00;;
75704;SDS011;64391;44.686;37.628;2022-10-22T06:38:50;14.90;;;3.97;;
75704;SDS011;64391;44.686;37.628;2022-10-22T06:41:18;9.43;;;3.40;;
75704;SDS011;64391;44.686;37.628;2022-10-22T06:43:45;12.55;;;3.38;;
75704;SDS011;64391;44.686;37.628;2022-10-22T06:46:17;10.73;;;3.10;;
75704;SDS011;64391;44.686;37.628;2022-10-22T06:48:49;10.63;;;2.95;;
75704;SDS011;64391;44.686;37.628;2022-10-22T06:51:17;9.50;;;3.20;;
75704;SDS011;64391;44.686;37.628;2022-10-22T06:53:46;6.68;;;2.38;;
75704;SDS011;64391;44.686;37.628;2022-10-22T06:56:14;5.70;;;2.55;;
75704;SDS011;64391;44.686;37.628;2022-10-22T06:58:45;7.70;;;2.50;;
75704;SDS011;64391;44.686;37.628;2022-10-22T07:01:13;3.90;;;1.80;;
75704;SDS011;64391;44.686;37.628;2022-10-22T07:03:42;6.47;;;2.10;;
75704;SDS011;64391;44.686;37.628;2022-10-22T07:06:10;4.57;;;1.80;;
75704;SDS011;64391;44.686;37.628;2022-10-22T07:08:39;10.02;;;2.22;;
75704;SDS011;64391;44.686;37.628;2022-10-22T07:11:07;8.57;;;2.67;;
75704;SDS011;64391;44.686;37.628;2022-10-22T07:13:39;3.47;;;1.90;;
75704;SDS011;64391;44.686;37.628;2022-10-22T07:16:07;2.53;;;1.70;;
75704;SDS011;64391;44.686;37.628;2022-10-22T07:18:35;4.82;;;1.50;;
75704;SDS011;64391;44.686;37.628;2022-10-22T07:21:03;3.15;;;1.30;;
75704;SDS011;64391;44.686;37.628;2022-10-22T07:23:30;5.65;;;1.45;;
75704;SDS011;64391;44.686;37.628;2022-10-22T07:25:58;3.60;;;1.50;;
75704;SDS011;64391;44.686;37.628;2022-10-22T07:28:28;3.28;;;1.45;;
75704;SDS011;64391;44.686;37.628;2022-10-22T07:30:55;4.00;;;1.20;;
75704;SDS011;64391;44.686;37.628;2022-10-22T07:33:22;3.70;;;1.20;;
75704;SDS011;64391;44.686;37.628;2022-10-22T07:35:49;3.42;;;1.27;;
75704;SDS011;64391;44.686;37.628;2022-10-22T07:38:16;4.93;;;1.10;;
75704;SDS011;64391;44.686;37.628;2022-10-22T07:40:43;1.73;;;1.02;;
75704;SDS011;64391;44.686;37.628;2022-10-22T07:43:09;5.93;;;1.42;;
75704;SDS011;64391;44.686;37.628;2022-10-22T07:45:36;5.40;;;1.10;;
75704;SDS011;64391;44.686;37.628;2022-10-22T07:48:03;3.15;;;1.17;;
75704;SDS011;64391;44.686;37.628;2022-10-22T07:50:30;3.72;;;1.10;;
75704;SDS011;64391;44.686;37.628;2022-10-22T07:52:57;2.72;;;1.30;;
75704;SDS011;64391;44.686;37.628;2022-10-22T07:55:24;4.63;;;1.25;;
75704;SDS011;64391;44.686;37.628;2022-10-22T07:57:51;1.80;;;1.08;;
75704;SDS011;64391;44.686;37.628;2022-10-22T08:00:18;1.90;;;0.80;;
75704;SDS011;64391;44.686;37.628;2022-10-22T08:02:45;3.20;;;1.15;;
75704;SDS011;64391;44.686;37.628;2022-10-22T08:05:12;3.65;;;1.17;;
75704;SDS011;64391;44.686;37.628;2022-10-22T08:07:41;4.35;;;0.98;;
75704;SDS011;64391;44.686;37.628;2022-10-22T08:10:09;2.47;;;0.85;;
75704;SDS011;64391;44.686;37.628;2022-10-22T08:12:37;1.92;;;0.77;;
75704;SDS011;64391;44.686;37.628;2022-10-22T08:15:04;3.60;;;0.88;;
75704;SDS011;64391;44.686;37.628;2022-10-22T08:17:32;1.38;;;0.80;;
75704;SDS011;64391;44.686;37.628;2022-10-22T08:19:58;2.63;;;1.13;;
75704;SDS011;64391;44.686;37.628;2022-10-22T08:22:25;2.08;;;1.25;;
75704;SDS011;64391;44.686;37.628;2022-10-22T08:24:52;5.60;;;1.67;;
75704;SDS011;64391;44.686;37.628;2022-10-22T08:27:19;2.08;;;1.17;;
75704;SDS011;64391;44.686;37.628;2022-10-22T08:29:46;3.28;;;1.30;;
75704;SDS011;64391;44.686;37.628;2022-10-22T08:32:13;24.85;;;14.60;;
75704;SDS011;64391;44.686;37.628;2022-10-22T08:34:39;1.77;;;0.80;;
75704;SDS011;64391;44.686;37.628;2022-10-22T08:37:06;2.00;;;0.88;;
75704;SDS011;64391;44.686;37.628;2022-10-22T08:39:33;13.00;;;7.38;;
75704;SDS011;64391;44.686;37.628;2022-10-22T08:50:20;3.50;;;1.67;;
75704;SDS011;64391;44.686;37.628;2022-10-22T08:55:47;3.70;;;0.98;;
75704;SDS011;64391;44.686;37.628;2022-10-22T08:58:20;1.05;;;0.80;;
75704;SDS011;64391;44.686;37.628;2022-10-22T09:01:09;1.02;;;0.60;;
75704;SDS011;64391;44.686;37.628;2022-10-22T09:03:56;1.73;;;0.95;;
75704;SDS011;64391;44.686;37.628;2022-10-22T09:06:24;2.33;;;0.63;;
75704;SDS011;64391;44.686;37.628;2022-10-22T09:08:53;1.17;;;0.45;;
75704;SDS011;64391;44.686;37.628;2022-10-22T09:11:32;2.63;;;0.90;;
75704;SDS011;64391;44.686;37.628;2022-10-22T09:14:01;7.28;;;1.00;;
75704;SDS011;64391;44.686;37.628;2022-10-22T09:27:10;5.28;;;0.98;;
75704;SDS011;64391;44.686;37.628;2022-10-22T09:29:39;6.30;;;0.80;;
75704;SDS011;64391;44.686;37.628;2022-10-22T09:32:06;1.95;;;0.60;;
75704;SDS011;64391;44.686;37.628;2022-10-22T09:34:33;8.48;;;0.85;;
75704;SDS011;64391;44.686;37.628;2022-10-22T09:37:00;1.10;;;0.63;;
75704;SDS011;64391;44.686;37.628;2022-10-22T09:39:34;16.83;;;1.23;;
75704;SDS011;64391;44.686;37.628;2022-10-22T09:42:07;2.78;;;0.70;;
75704;SDS011;64391;44.686;37.628;2022-10-22T09:44:36;2.35;;;1.20;;
75704;SDS011;64391;44.686;37.628;2022-10-22T09:47:24;3.47;;;0.88;;
75704;SDS011;64391;44.686;37.628;2022-10-22T09:50:25;0.40;;;0.40;;
75704;SDS011;64391;44.686;37.628;2022-10-22T09:55:37;1.10;;;0.47;;
75704;SDS011;64391;44.686;37.628;2022-10-22T09:58:07;1.90;;;0.65;;
75704;SDS011;64391;44.686;37.628;2022-10-22T10:00:38;0.82;;;0.57;;
75704;SDS011;64391;44.686;37.628;2022-10-22T10:03:05;2.25;;;0.80;;
75704;SDS011;64391;44.686;37.628;2022-10-22T10:05:40;0.60;;;0.55;;
75704;SDS011;64391;44.686;37.628;2022-10-22T10:08:12;2.03;;;0.50;;
75704;SDS011;64391;44.686;37.628;2022-10-22T10:10:50;2.20;;;0.75;;
75704;SDS011;64391;44.686;37.628;2022-10-22T10:13:39;0.43;;;0.40;;
75704;SDS011;64391;44.686;37.628;2022-10-22T10:27:44;2.67;;;1.63;;
75704;SDS011;64391;44.686;37.628;2022-10-22T10:30:19;2.88;;;1.30;;
75704;SDS011;64391;44.686;37.628;2022-10-22T10:35:21;42.10;;;19.15;;
75704;SDS011;64391;44.686;37.628;2022-10-22T10:50:52;1.75;;;0.50;;
75704;SDS011;64391;44.686;37.628;2022-10-22T10:56:46;2.80;;;0.50;;
75704;SDS011;64391;44.686;37.628;2022-10-22T11:05:19;0.77;;;0.40;;
75704;SDS011;64391;44.686;37.628;2022-10-22T11:16:30;3.03;;;1.30;;
75704;SDS011;64391;44.686;37.628;2022-10-22T11:27:39;1.83;;;1.20;;
75704;SDS011;64391;44.686;37.628;2022-10-22T11:30:11;2.25;;;1.10;;
75704;SDS011;64391;44.686;37.628;2022-10-22T11:32:45;2.55;;;0.90;;
75704;SDS011;64391;44.686;37.628;2022-10-22T11:35:22;1.00;;;0.60;;
75704;SDS011;64391;44.686;37.628;2022-10-22T11:37:51;1.42;;;0.80;;
75704;SDS011;64391;44.686;37.628;2022-10-22T11:40:31;2.90;;;0.98;;
75704;SDS011;64391;44.686;37.628;2022-10-22T11:45:34;1.63;;;0.50;;
75704;SDS011;64391;44.686;37.628;2022-10-22T11:58:28;4.20;;;1.63;;
75704;SDS011;64391;44.686;37.628;2022-10-22T12:11:34;1.85;;;0.50;;
75704;SDS011;64391;44.686;37.628;2022-10-22T12:19:39;4.22;;;0.93;;
75704;SDS011;64391;44.686;37.628;2022-10-22T12:24:36;1.33;;;0.68;;
75704;SDS011;64391;44.686;37.628;2022-10-22T12:27:18;3.95;;;0.80;;
75704;SDS011;64391;44.686;37.628;2022-10-22T12:29:47;2.33;;;0.80;;
75704;SDS011;64391;44.686;37.628;2022-10-22T12:32:15;2.15;;;1.20;;
75704;SDS011;64391;44.686;37.628;2022-10-22T12:34:51;1.73;;;1.00;;
75704;SDS011;64391;44.686;37.628;2022-10-22T12:37:18;2.17;;;0.82;;
75704;SDS011;64391;44.686;37.628;2022-10-22T12:39:45;1.27;;;0.60;;
75704;SDS011;64391;44.686;37.628;2022-10-22T12:42:14;2.50;;;0.80;;
75704;SDS011;64391;44.686;37.628;2022-10-22T12:44:45;3.13;;;1.02;;
75704;SDS011;64391;44.686;37.628;2022-10-22T12:47:16;4.47;;;0.90;;
75704;SDS011;64391;44.686;37.628;2022-10-22T12:49:45;0.70;;;0.70;;
75704;SDS011;64391;44.686;37.628;2022-10-22T12:52:18;2.50;;;0.60;;
75704;SDS011;64391;44.686;37.628;2022-10-22T12:54:48;1.55;;;0.98;;
75704;SDS011;64391;44.686;37.628;2022-10-22T12:57:20;3.38;;;1.10;;
75704;SDS011;64391;44.686;37.628;2022-10-22T12:59:48;4.63;;;1.17;;
75704;SDS011;64391;44.686;37.628;2022-10-22T13:02:21;1.25;;;0.80;;
75704;SDS011;64391;44.686;37.628;2022-10-22T13:07:54;0.73;;;0.70;;
75704;SDS011;64391;44.686;37.628;2022-10-22T13:10:34;0.80;;;0.63;;
75704;SDS011;64391;44.686;37.628;2022-10-22T13:13:03;2.83;;;0.60;;
75704;SDS011;64391;44.686;37.628;2022-10-22T13:15:34;2.88;;;0.60;;
75704;SDS011;64391;44.686;37.628;2022-10-22T13:20:55;0.88;;;0.60;;
75704;SDS011;64391;44.686;37.628;2022-10-22T13:23:30;0.93;;;0.50;;
75704;SDS011;64391;44.686;37.628;2022-10-22T13:25:59;0.80;;;0.65;;
75704;SDS011;64391;44.686;37.628;2022-10-22T13:28:54;1.15;;;0.60;;
75704;SDS011;64391;44.686;37.628;2022-10-22T13:31:23;9.77;;;1.10;;
75704;SDS011;64391;44.686;37.628;2022-10-22T13:33:55;1.67;;;0.70;;
75704;SDS011;64391;44.686;37.628;2022-10-22T13:36:25;1.88;;;0.73;;
75704;SDS011;64391;44.686;37.628;2022-10-22T13:38:53;1.38;;;0.63;;
75704;SDS011;64391;44.686;37.628;2022-10-22T13:43:52;1.02;;;0.50;;
75704;SDS011;64391;44.686;37.628;2022-10-22T13:46:20;1.30;;;0.43;;
75704;SDS011;64391;44.686;37.628;2022-10-22T13:48:48;4.22;;;0.70;;
75704;SDS011;64391;44.686;37.628;2022-10-22T13:51:24;2.92;;;0.70;;
75704;SDS011;64391;44.686;37.628;2022-10-22T13:53:57;3.63;;;0.93;;
75704;SDS011;64391;44.686;37.628;2022-10-22T13:56:24;2.25;;;1.38;;
75704;SDS011;64391;44.686;37.628;2022-10-22T13:58:51;3.63;;;0.95;;
75704;SDS011;64391;44.686;37.628;2022-10-22T14:01:22;5.65;;;1.00;;
75704;SDS011;64391;44.686;37.628;2022-10-22T14:03:53;3.47;;;1.80;;
75704;SDS011;64391;44.686;37.628;2022-10-22T14:06:28;5.75;;;2.08;;
75704;SDS011;64391;44.686;37.628;2022-10-22T14:09:01;8.65;;;2.50;;
75704;SDS011;64391;44.686;37.628;2022-10-22T14:11:29;5.60;;;3.30;;
75704;SDS011;64391;44.686;37.628;2022-10-22T14:13:57;9.15;;;4.00;;
75704;SDS011;64391;44.686;37.628;2022-10-22T14:16:25;7.97;;;4.32;;
75704;SDS011;64391;44.686;37.628;2022-10-22T14:18:53;15.10;;;6.97;;
75704;SDS011;64391;44.686;37.628;2022-10-22T14:21:21;13.68;;;6.72;;
75704;SDS011;64391;44.686;37.628;2022-10-22T14:23:50;15.95;;;7.65;;
75704;SDS011;64391;44.686;37.628;2022-10-22T14:28:50;17.25;;;6.47;;
75704;SDS011;64391;44.686;37.628;2022-10-22T14:31:16;14.38;;;5.82;;
75704;SDS011;64391;44.686;37.628;2022-10-22T14:33:43;10.82;;;5.53;;
75704;SDS011;64391;44.686;37.628;2022-10-22T14:36:11;12.00;;;6.10;;
75704;SDS011;64391;44.686;37.628;2022-10-22T14:38:39;11.15;;;5.43;;
75704;SDS011;64391;44.686;37.628;2022-10-22T14:41:28;19.15;;;9.02;;
75704;SDS011;64391;44.686;37.628;2022-10-22T14:43:55;88.85;;;45.28;;
75704;SDS011;64391;44.686;37.628;2022-10-22T14:46:22;89.20;;;47.53;;
75704;SDS011;64391;44.686;37.628;2022-10-22T14:48:48;45.75;;;25.33;;
75704;SDS011;64391;44.686;37.628;2022-10-22T14:51:19;30.70;;;15.38;;
75704;SDS011;64391;44.686;37.628;2022-10-22T14:53:46;8.93;;;5.50;;
75704;SDS011;64391;44.686;37.628;2022-10-22T14:56:15;3.85;;;2.35;;
75704;SDS011;64391;44.686;37.628;2022-10-22T14:58:43;11.10;;;4.57;;
75704;SDS011;64391;44.686;37.628;2022-10-22T15:01:10;4.75;;;2.80;;
75704;SDS011;64391;44.686;37.628;2022-10-22T15:03:38;16.08;;;8.80;;
75704;SDS011;64391;44.686;37.628;2022-10-22T15:06:04;3.05;;;1.85;;
75704;SDS011;64391;44.686;37.628;2022-10-22T15:08:32;1.27;;;0.80;;
75704;SDS011;64391;44.686;37.628;2022-10-22T15:10:59;1.63;;;0.77;;
75704;SDS011;64391;44.686;37.628;2022-10-22T15:13:31;2.78;;;0.90;;
75704;SDS011;64391;44.686;37.628;2022-10-22T15:15:58;1.40;;;0.82;;
75704;SDS011;64391;44.686;37.628;2022-10-22T15:18:26;3.85;;;2.20;;
75704;SDS011;64391;44.686;37.628;2022-10-22T15:21:01;13.73;;;4.35;;
75704;SDS011;64391;44.686;37.628;2022-10-22T15:23:30;8.45;;;5.05;;
75704;SDS011;64391;44.686;37.628;2022-10-22T15:25:57;12.18;;;4.07;;
75704;SDS011;64391;44.686;37.628;2022-10-22T15:28:24;10.07;;;5.55;;
75704;SDS011;64391;44.686;37.628;2022-10-22T15:30:52;13.13;;;5.80;;
75704;SDS011;64391;44.686;37.628;2022-10-22T15:33:24;29.67;;;14.00;;
75704;SDS011;64391;44.686;37.628;2022-10-22T15:35:52;21.92;;;11.20;;
75704;SDS011;64391;44.686;37.628;2022-10-22T15:38:19;34.70;;;12.27;;
75704;SDS011;64391;44.686;37.628;2022-10-22T15:40:45;30.63;;;14.93;;
75704;SDS011;64391;44.686;37.628;2022-10-22T15:43:12;35.50;;;14.98;;
75704;SDS011;64391;44.686;37.628;2022-10-22T15:45:39;43.88;;;17.40;;
75704;SDS011;64391;44.686;37.628;2022-10-22T15:48:06;48.58;;;21.70;;
75704;SDS011;64391;44.686;37.628;2022-10-22T15:50:36;43.17;;;19.83;;
75704;SDS011;64391;44.686;37.628;2022-10-22T15:53:04;35.22;;;16.10;;
75704;SDS011;64391;44.686;37.628;2022-10-22T15:55:30;37.13;;;16.45;;
75704;SDS011;64391;44.686;37.628;2022-10-22T15:57:57;36.63;;;14.95;;
75704;SDS011;64391;44.686;37.628;2022-10-22T16:00:24;32.25;;;12.95;;
75704;SDS011;64391;44.686;37.628;2022-10-22T16:02:52;29.13;;;12.90;;
75704;SDS011;64391;44.686;37.628;2022-10-22T16:05:20;27.67;;;11.57;;
75704;SDS011;64391;44.686;37.628;2022-10-22T16:07:46;25.00;;;10.60;;
75704;SDS011;64391;44.686;37.628;2022-10-22T16:10:13;25.33;;;10.40;;
75704;SDS011;64391;44.686;37.628;2022-10-22T16:12:40;22.88;;;10.40;;
75704;SDS011;64391;44.686;37.628;2022-10-22T16:15:08;23.05;;;10.15;;
75704;SDS011;64391;44.686;37.628;2022-10-22T16:17:35;24.00;;;10.13;;
75704;SDS011;64391;44.686;37.628;2022-10-22T16:20:02;20.48;;;9.88;;
75704;SDS011;64391;44.686;37.628;2022-10-22T16:22:29;24.85;;;9.48;;
75704;SDS011;64391;44.686;37.628;2022-10-22T16:24:56;24.42;;;12.05;;
75704;SDS011;64391;44.686;37.628;2022-10-22T16:27:23;33.78;;;13.13;;
75704;SDS011;64391;44.686;37.628;2022-10-22T16:29:50;33.85;;;14.70;;
75704;SDS011;64391;44.686;37.628;2022-10-22T16:32:17;32.38;;;15.15;;
75704;SDS011;64391;44.686;37.628;2022-10-22T16:34:43;27.27;;;13.52;;
75704;SDS011;64391;44.686;37.628;2022-10-22T16:37:10;26.33;;;11.60;;
75704;SDS011;64391;44.686;37.628;2022-10-22T16:39:37;23.65;;;11.88;;
75704;SDS011;64391;44.686;37.628;2022-10-22T16:42:04;24.63;;;10.98;;
75704;SDS011;64391;44.686;37.628;2022-10-22T16:44:31;26.02;;;11.52;;
75704;SDS011;64391;44.686;37.628;2022-10-22T16:46:58;33.60;;;13.93;;
75704;SDS011;64391;44.686;37.628;2022-10-22T16:49:26;31.73;;;16.90;;
75704;SDS011;64391;44.686;37.628;2022-10-22T16:51:53;28.52;;;12.65;;
75704;SDS011;64391;44.686;37.628;2022-10-22T16:54:19;30.55;;;13.25;;
75704;SDS011;64391;44.686;37.628;2022-10-22T16:56:47;28.20;;;12.48;;
75704;SDS011;64391;44.686;37.628;2022-10-22T16:59:13;35.80;;;14.13;;
75704;SDS011;64391;44.686;37.628;2022-10-22T17:01:40;22.27;;;10.75;;
75704;SDS011;64391;44.686;37.628;2022-10-22T17:04:08;25.50;;;11.77;;
75704;SDS011;64391;44.686;37.628;2022-10-22T17:06:35;19.90;;;9.55;;
75704;SDS011;64391;44.686;37.628;2022-10-22T17:09:02;14.73;;;7.35;;
75704;SDS011;64391;44.686;37.628;2022-10-22T17:11:29;21.55;;;11.10;;
75704;SDS011;64391;44.686;37.628;2022-10-22T17:14:00;15.02;;;6.88;;
75704;SDS011;64391;44.686;37.628;2022-10-22T17:16:28;21.65;;;10.50;;
75704;SDS011;64391;44.686;37.628;2022-10-22T17:18:55;19.15;;;10.20;;
75704;SDS011;64391;44.686;37.628;2022-10-22T17:21:23;25.98;;;11.35;;
75704;SDS011;64391;44.686;37.628;2022-10-22T17:23:56;18.90;;;9.45;;
75704;SDS011;64391;44.686;37.628;2022-10-22T17:26:23;19.35;;;7.97;;
75704;SDS011;64391;44.686;37.628;2022-10-22T17:28:51;17.58;;;7.90;;
75704;SDS011;64391;44.686;37.628;2022-10-22T17:31:23;15.75;;;7.32;;
75704;SDS011;64391;44.686;37.628;2022-10-22T17:33:59;12.63;;;6.60;;
75704;SDS011;64391;44.686;37.628;2022-10-22T17:36:27;14.45;;;6.80;;
75704;SDS011;64391;44.686;37.628;2022-10-22T17:38:56;12.45;;;6.70;;
75704;SDS011;64391;44.686;37.628;2022-10-22T17:41:26;13.15;;;6.72;;
75704;SDS011;64391;44.686;37.628;2022-10-22T17:43:55;13.77;;;7.25;;
75704;SDS011;64391;44.686;37.628;2022-10-22T17:46:23;17.65;;;8.20;;